Overview Statistics Trail Chart Weather Telemetry Raw packets
 

This is the latest recevied weather packets stored in our database for station/object HOWARD. If no packets are shown the sender has not sent any weather packets the latest 10 day(s).

<< 35 36 37 38 39 40 41 >>
Time Temp. Humidity Pressure Rain* Wind** Luminosity Snow
1788146681 8.33° C 58% 1017.2 hPa 0 mm - - -
1788146080 7.78° C 59% 1017.2 hPa 0 mm - - -
1788145480 7.78° C 59% 1017 hPa 0 mm - - -
1788144880 7.78° C 56% 1017.1 hPa 0 mm - - -
1788144280 7.78° C 58% 1017 hPa 0 mm - - -
1788143680 8.33° C 57% 1017 hPa 0 mm - - -
1788143080 8.89° C 54% 1016.9 hPa 0 mm - - -
1788142515 9.44° C 50% 1017 hPa 0 mm - - -
1788142480 9.44° C 50% 1017 hPa 0 mm - - -
1788141884 10° C 50% 1016.9 hPa 0 mm - - -
1788141280 10° C 53% 1017.1 hPa 0 mm - - -
1788140680 10° C 52% 1016.5 hPa 0 mm - - -
1788140080 10.56° C 52% 1016.6 hPa 0 mm - - -
1788139563 10.56° C 50% 1016.7 hPa 0 mm - - -
1788139480 10.56° C 50% 1016.7 hPa 0 mm - - -
1788138880 10° C 52% 1016.8 hPa 0 mm - - -
1788138280 10° C 53% 1016.8 hPa 0 mm - - -
1788137680 10° C 52% 1016.8 hPa 0 mm - - -
1788137080 10° C 51% 1016.9 hPa 0 mm - - -
1788136480 11.11° C 50% 1017.1 hPa 0 mm - - -
1788135881 11.11° C 50% 1017 hPa 0 mm - - -
1788135337 10.56° C 52% 1017 hPa 0 mm - - -
1788135280 10.56° C 52% 1017 hPa 0 mm - - -
1788134680 10.56° C 53% 1017 hPa 0 mm - - -
1788134080 9.44° C 54% 1017.1 hPa 0 mm - - -

* Rain latest hour (hover to see other rain measurements)
** Current wind speed in m/s (hover to see current wind gust speed)